Time;durP1;ratioP1;P1;durP2;ratioP2;P2;SDS_P1;SDS_P2;PMS_P1;PMS_P2;Temp;Humidity;BMP_temperature;BMP_pressure;BME280_temperature;BME280_humidity;BME280_pressure;Samples;Min_cycle;Max_cycle;Signal;HPM_P1;HPM_P2
2023/10/24 00:00:16;;;;;;;19.55;11.23;;;;;;;11.18;100.00;100137.31;5028522;28;20048;-71
2023/10/24 00:02:41;;;;;;;13.48;10.27;;;;;;;11.20;100.00;100137.19;5010661;28;20088;-72
2023/10/24 00:05:07;;;;;;;13.63;9.45;;;;;;;11.22;100.00;100129.75;5021634;28;20064;-72
2023/10/24 00:07:33;;;;;;;16.27;9.55;;;;;;;11.21;100.00;100130.75;5028267;28;20046;-71
2023/10/24 00:09:58;;;;;;;16.88;9.48;;;;;;;11.23;100.00;100134.19;5025009;28;20489;-71
2023/10/24 00:12:24;;;;;;;15.70;8.80;;;;;;;11.23;100.00;100132.34;5010549;28;20433;-72
2023/10/24 00:14:49;;;;;;;13.88;7.88;;;;;;;11.24;100.00;100130.50;5027077;28;20041;-70
2023/10/24 00:17:14;;;;;;;16.77;8.30;;;;;;;11.27;100.00;100132.94;5029868;28;20037;-72
2023/10/24 00:19:40;;;;;;;18.35;8.10;;;;;;;11.27;100.00;100124.75;5029942;28;20116;-71
2023/10/24 00:22:05;;;;;;;12.45;7.70;;;;;;;11.27;100.00;100122.03;5028914;28;20025;-71
2023/10/24 00:24:31;;;;;;;12.65;7.20;;;;;;;11.30;100.00;100120.94;5030201;28;20049;-71
2023/10/24 00:26:57;;;;;;;13.52;7.95;;;;;;;11.31;100.00;100117.19;5029731;28;20045;-71
2023/10/24 00:29:23;;;;;;;12.77;7.57;;;;;;;11.29;100.00;100122.78;5030137;28;20060;-71
2023/10/24 00:31:49;;;;;;;11.60;7.68;;;;;;;11.30;100.00;100118.19;5029305;28;20029;-71
2023/10/24 00:34:16;;;;;;;9.98;6.40;;;;;;;11.29;100.00;100121.94;5029553;28;20405;-71
2023/10/24 00:36:43;;;;;;;12.45;8.13;;;;;;;11.30;100.00;100120.94;5012265;28;20033;-71
2023/10/24 00:39:08;;;;;;;10.80;7.32;;;;;;;11.31;100.00;100126.22;5016109;28;20025;-71
2023/10/24 00:41:34;;;;;;;13.32;7.18;;;;;;;11.31;100.00;100125.38;5030171;28;20037;-72
2023/10/24 00:43:59;;;;;;;10.35;6.70;;;;;;;11.31;100.00;100125.38;5028194;28;20022;-72
2023/10/24 00:46:26;;;;;;;12.88;6.60;;;;;;;11.31;100.00;100128.09;5028014;28;20033;-71
2023/10/24 00:48:52;;;;;;;15.15;7.15;;;;;;;11.30;100.00;100132.69;5027846;28;20041;-74
2023/10/24 00:51:17;;;;;;;12.05;6.65;;;;;;;11.27;100.00;100123.91;5026942;28;20508;-71
2023/10/24 00:53:42;;;;;;;14.20;7.32;;;;;;;11.30;100.00;100132.69;5029455;28;20444;-70
2023/10/24 00:56:10;;;;;;;12.45;6.15;;;;;;;11.30;100.00;100135.41;5029558;28;20567;-69
2023/10/24 00:58:38;;;;;;;11.10;5.97;;;;;;;11.27;100.00;100130.22;5029161;28;20028;-72
2023/10/24 01:01:06;;;;;;;12.27;6.43;;;;;;;11.27;100.00;100132.06;5029270;28;20486;-73
2023/10/24 01:03:32;;;;;;;9.55;6.43;;;;;;;11.27;100.00;100127.50;5027447;28;20088;-70
2023/10/24 01:06:00;;;;;;;12.27;6.40;;;;;;;11.24;100.00;100125.06;5026917;28;20497;-71
2023/10/24 01:08:25;;;;;;;8.48;5.53;;;;;;;11.24;100.00;100134.09;5027668;28;20033;-71
2023/10/24 01:10:51;;;;;;;8.90;5.53;;;;;;;11.25;100.00;100129.50;5029586;28;20084;-72
2023/10/24 01:13:16;;;;;;;11.25;6.10;;;;;;;11.23;100.00;100129.59;5029599;28;20041;-71
2023/10/24 01:15:42;;;;;;;10.07;5.45;;;;;;;11.23;100.00;100126.88;5011320;28;20021;-70
2023/10/24 01:18:08;;;;;;;23.38;5.65;;;;;;;11.20;100.00;100121.72;5024113;28;20036;-71
2023/10/24 01:20:33;;;;;;;7.10;4.57;;;;;;;11.23;100.00;100115.13;5007984;28;20080;-70
2023/10/24 01:22:58;;;;;;;6.75;4.45;;;;;;;11.20;100.00;100121.72;5026481;28;20033;-70
2023/10/24 01:25:24;;;;;;;7.32;4.20;;;;;;;11.17;100.00;100132.00;5027518;28;20401;-71
2023/10/24 01:27:53;;;;;;;7.47;5.43;;;;;;;11.18;100.00;100125.56;5029609;28;20029;-70
2023/10/24 01:30:19;;;;;;;6.47;3.92;;;;;;;11.17;100.00;100127.44;5028978;28;20512;-71
2023/10/24 01:32:45;;;;;;;6.40;4.05;;;;;;;11.17;100.00;100124.69;5011232;28;20045;-70
2023/10/24 01:35:11;;;;;;;6.97;3.65;;;;;;;11.14;100.00;100119.50;5009895;28;20414;-70
2023/10/24 01:37:36;;;;;;;5.05;3.88;;;;;;;11.14;100.00;100129.53;5028348;28;20459;-70
2023/10/24 01:40:03;;;;;;;6.10;3.70;;;;;;;11.13;100.00;100127.81;5028885;28;20029;-70
2023/10/24 01:42:29;;;;;;;6.28;3.90;;;;;;;11.13;100.00;100138.72;5027301;28;20055;-69
2023/10/24 01:44:54;;;;;;;5.93;3.50;;;;;;;11.13;100.00;100138.72;5014079;28;20018;-71
2023/10/24 01:47:19;;;;;;;8.30;4.28;;;;;;;11.12;100.00;100131.56;5028624;28;20029;-71
2023/10/24 01:49:45;;;;;;;8.93;4.30;;;;;;;11.10;100.00;100123.53;5026712;28;20067;-71
2023/10/24 01:52:10;;;;;;;4.70;3.70;;;;;;;11.10;100.00;100115.34;5022340;28;20026;-71
2023/10/24 01:54:36;;;;;;;6.00;3.95;;;;;;;11.08;100.00;100114.59;5009083;28;20107;-69
2023/10/24 01:57:01;;;;;;;5.93;3.70;;;;;;;11.10;100.00;100120.81;5010459;28;20397;-70
2023/10/24 01:59:27;;;;;;;7.80;3.75;;;;;;;11.09;100.00;100118.19;5026846;28;20075;-71
2023/10/24 02:01:52;;;;;;;5.30;3.80;;;;;;;11.09;100.00;100121.78;5010360;28;20094;-69
2023/10/24 02:04:18;;;;;;;8.07;4.13;;;;;;;11.08;100.00;100128.22;5028185;28;20044;-70
2023/10/24 02:06:43;;;;;;;15.40;4.45;;;;;;;11.08;100.00;100117.31;5014654;28;20038;-69
2023/10/24 02:09:08;;;;;;;5.85;3.75;;;;;;;11.06;100.00;100116.63;5008299;28;20029;-70
2023/10/24 02:11:34;;;;;;;6.70;4.50;;;;;;;11.06;100.00;100119.34;5008697;28;20112;-73
2023/10/24 02:13:59;;;;;;;7.13;3.67;;;;;;;11.05;100.00;100116.72;5016400;28;20507;-70
2023/10/24 02:16:24;;;;;;;7.93;3.80;;;;;;;11.05;100.00;100114.00;5026615;28;20017;-71
2023/10/24 02:18:51;;;;;;;5.55;4.10;;;;;;;11.04;100.00;100118.59;5026810;28;20082;-69
2023/10/24 02:21:16;;;;;;;9.38;4.05;;;;;;;11.05;100.00;100114.00;5009841;28;20396;-71
2023/10/24 02:23:42;;;;;;;7.18;3.78;;;;;;;11.04;100.00;100123.16;5017746;28;20033;-69
2023/10/24 02:26:16;;;;;;;7.90;4.45;;;;;;;11.02;100.00;100122.44;5023279;28;20160;-72
2023/10/24 02:28:42;;;;;;;5.63;3.75;;;;;;;11.03;100.00;100119.59;5009648;28;20052;-71
2023/10/24 02:31:08;;;;;;;6.72;4.07;;;;;;;11.01;100.00;100123.47;5008340;28;20038;-71
2023/10/24 02:33:33;;;;;;;5.78;4.60;;;;;;;10.99;100.00;100123.56;5005971;28;20409;-70
2023/10/24 02:36:08;;;;;;;6.63;4.22;;;;;;;10.97;100.00;100129.16;5005491;28;20041;-71
2023/10/24 02:38:34;;;;;;;5.43;3.58;;;;;;;10.95;100.00;100131.13;5007600;28;20044;-70
2023/10/24 02:41:00;;;;;;;10.57;4.40;;;;;;;10.93;100.00;100132.25;5006898;28;20018;-71
2023/10/24 02:43:25;;;;;;;7.22;3.88;;;;;;;10.90;100.00;100127.94;5011514;28;20420;-72
2023/10/24 02:45:51;;;;;;;5.82;3.67;;;;;;;10.88;100.00;100132.66;5027561;28;20037;-74
2023/10/24 02:48:17;;;;;;;5.30;3.72;;;;;;;10.88;100.00;100135.38;5027811;28;20033;-69
2023/10/24 02:50:43;;;;;;;5.63;3.75;;;;;;;10.87;100.00;100140.97;5016528;28;20563;-69
2023/10/24 02:53:09;;;;;;;8.25;3.38;;;;;;;10.82;100.00;100135.91;5018185;28;20034;-70
2023/10/24 02:55:35;;;;;;;6.00;3.72;;;;;;;10.83;100.00;100140.34;5025985;28;20117;-71
2023/10/24 02:58:00;;;;;;;5.35;4.20;;;;;;;10.81;100.00;100150.47;5025835;28;20024;-71
2023/10/24 03:00:25;;;;;;;7.05;4.22;;;;;;;10.79;100.00;100143.47;5023210;28;20042;-70
2023/10/24 03:02:51;;;;;;;4.70;3.75;;;;;;;10.78;100.00;100150.75;5008102;28;20045;-71
2023/10/24 03:05:16;;;;;;;8.73;3.85;;;;;;;10.76;100.00;100149.16;5021394;28;20589;-70
2023/10/24 03:07:41;;;;;;;5.00;3.70;;;;;;;10.75;100.00;100151.00;5009969;28;20041;-69
2023/10/24 03:10:07;;;;;;;6.13;4.10;;;;;;;10.73;100.00;100153.88;5026881;28;20064;-69
2023/10/24 03:12:33;;;;;;;6.07;4.18;;;;;;;10.70;100.00;100148.69;5027137;28;20405;-70
2023/10/24 03:14:58;;;;;;;5.57;3.63;;;;;;;10.72;100.00;100162.13;5024882;28;20044;-70
2023/10/24 03:17:24;;;;;;;8.82;4.10;;;;;;;10.71;100.00;100157.69;5025246;28;20013;-70
2023/10/24 03:19:49;;;;;;;6.57;3.92;;;;;;;10.71;100.00;100158.56;5027001;28;20041;-69
2023/10/24 03:22:15;;;;;;;4.75;3.45;;;;;;;10.67;100.00;100145.34;5024211;28;20456;-70
2023/10/24 03:24:40;;;;;;;6.63;4.18;;;;;;;10.69;100.00;100159.69;5009140;28;20044;-71
2023/10/24 03:27:11;;;;;;;6.30;4.20;;;;;;;10.68;100.00;100149.81;5025450;28;20030;-70
2023/10/24 03:29:37;;;;;;;7.15;4.47;;;;;;;10.67;100.00;100156.22;5025103;28;20037;-69
2023/10/24 03:32:03;;;;;;;5.00;3.92;;;;;;;10.65;100.00;100150.94;5023331;28;20042;-71
2023/10/24 03:34:29;;;;;;;5.70;4.10;;;;;;;10.64;100.00;100162.81;5005313;28;20034;-69
2023/10/24 03:36:54;;;;;;;6.80;4.82;;;;;;;10.66;100.00;100159.94;5006113;28;20394;-70
2023/10/24 03:39:19;;;;;;;6.57;4.10;;;;;;;10.65;100.00;100159.09;5011086;28;20041;-69
2023/10/24 03:41:45;;;;;;;6.32;4.22;;;;;;;10.63;100.00;100155.66;5026751;28;20022;-70
2023/10/24 03:44:10;;;;;;;7.13;4.60;;;;;;;10.63;100.00;100158.38;5017596;28;20412;-71
2023/10/24 03:46:35;;;;;;;10.13;4.18;;;;;;;10.62;100.00;100143.00;5005256;28;20034;-69
2023/10/24 03:49:02;;;;;;;6.65;4.53;;;;;;;10.62;100.00;100153.88;5008947;28;20025;-70
2023/10/24 03:51:27;;;;;;;5.32;4.00;;;;;;;10.61;100.00;100151.31;5025328;28;20056;-71
2023/10/24 03:53:53;;;;;;;7.07;4.72;;;;;;;10.61;100.00;100154.88;5021361;28;20409;-73
2023/10/24 03:56:18;;;;;;;9.07;4.53;;;;;;;10.61;100.00;100157.63;5007520;28;20108;-69
2023/10/24 03:58:43;;;;;;;6.15;4.20;;;;;;;10.60;100.00;100163.19;5018068;28;20072;-70
2023/10/24 04:01:09;;;;;;;7.20;4.57;;;;;;;10.60;100.00;100155.03;5005138;28;20037;-69
2023/10/24 04:03:34;;;;;;;6.32;4.22;;;;;;;10.60;100.00;100160.47;5004907;28;20041;-70
2023/10/24 04:06:00;;;;;;;7.32;4.60;;;;;;;10.60;100.00;100166.78;5005937;28;20133;-69
2023/10/24 04:08:25;;;;;;;6.68;4.53;;;;;;;10.60;100.00;100168.63;5005017;28;20034;-69
2023/10/24 04:10:51;;;;;;;8.80;4.85;;;;;;;10.60;100.00;100168.63;5007397;28;20428;-71
2023/10/24 04:13:16;;;;;;;5.95;4.32;;;;;;;10.58;100.00;100165.16;5005996;28;20044;-71
2023/10/24 04:15:41;;;;;;;9.55;4.75;;;;;;;10.54;100.00;100167.28;5006188;28;20476;-71
2023/10/24 04:18:07;;;;;;;5.90;4.05;;;;;;;10.55;100.00;100158.13;5006568;28;20022;-69
2023/10/24 04:20:32;;;;;;;8.10;4.75;;;;;;;10.53;100.00;100151.94;5005070;28;20033;-71
2023/10/24 04:23:03;;;;;;;6.68;4.50;;;;;;;10.52;100.00;100150.22;5019453;28;20124;-70
2023/10/24 04:25:30;;;;;;;7.05;5.00;;;;;;;10.49;100.00;100145.03;5026626;28;20410;-70
2023/10/24 04:27:56;;;;;;;7.32;5.40;;;;;;;10.48;100.00;100136.00;5029238;28;20068;-71
2023/10/24 04:30:21;;;;;;;6.32;5.03;;;;;;;10.47;100.00;100123.41;5010146;28;20088;-73
2023/10/24 04:32:47;;;;;;;6.75;4.30;;;;;;;10.50;100.00;100132.31;5009506;28;20025;-70
2023/10/24 04:35:13;;;;;;;9.65;5.00;;;;;;;10.47;100.00;100117.09;5007356;28;20482;-71
2023/10/24 04:37:39;;;;;;;5.80;4.60;;;;;;;10.47;100.00;100120.69;5009636;28;20033;-72
2023/10/24 04:40:07;;;;;;;7.10;4.90;;;;;;;10.47;100.00;100127.97;5010880;28;20046;-70
2023/10/24 04:42:32;;;;;;;6.30;4.55;;;;;;;10.48;100.00;100121.53;5024783;28;20037;-70
2023/10/24 04:44:57;;;;;;;6.88;4.70;;;;;;;10.47;100.00;100117.97;5010836;28;20108;-69
2023/10/24 04:47:23;;;;;;;6.85;4.78;;;;;;;10.44;100.00;100122.78;5008663;28;20556;-70
2023/10/24 04:49:48;;;;;;;7.43;5.35;;;;;;;10.43;100.00;100126.50;5009923;28;20042;-69
2023/10/24 04:52:13;;;;;;;6.13;4.30;;;;;;;10.44;100.00;100129.13;5008213;28;20083;-69
2023/10/24 04:54:39;;;;;;;8.68;4.65;;;;;;;10.44;100.00;100130.94;5026459;28;20037;-69
2023/10/24 04:57:04;;;;;;;7.65;5.03;;;;;;;10.44;100.00;100131.84;5029188;28;20096;-70
2023/10/24 04:59:30;;;;;;;7.80;5.13;;;;;;;10.43;100.00;100131.94;5017869;28;20398;-71
2023/10/24 05:01:55;;;;;;;6.78;4.72;;;;;;;10.43;100.00;100140.97;5009476;28;20032;-70
2023/10/24 05:04:20;;;;;;;6.20;4.80;;;;;;;10.42;100.00;100132.94;5009231;28;20049;-70
2023/10/24 05:06:46;;;;;;;6.80;4.68;;;;;;;10.41;100.00;100134.81;5008433;28;20561;-70
2023/10/24 05:09:11;;;;;;;6.32;4.63;;;;;;;10.40;100.00;100132.22;5007709;28;20417;-70
2023/10/24 05:11:39;;;;;;;6.93;5.22;;;;;;;10.35;100.00;100126.28;5009619;28;20025;-70
2023/10/24 05:14:05;;;;;;;7.00;5.57;;;;;;;10.39;100.00;100141.34;5010275;28;20042;-71
2023/10/24 05:16:31;;;;;;;7.68;5.65;;;;;;;10.39;100.00;100134.06;5008590;28;20167;-69
2023/10/24 05:18:56;;;;;;;8.50;5.35;;;;;;;10.39;100.00;100136.78;5015142;28;20105;-69
2023/10/24 05:21:21;;;;;;;8.13;6.03;;;;;;;10.39;100.00;100138.63;5008160;28;20482;-72
2023/10/24 05:23:48;;;;;;;8.23;5.72;;;;;;;10.38;100.00;100136.91;5011501;28;20538;-69
2023/10/24 05:26:13;;;;;;;8.35;5.22;;;;;;;10.38;100.00;100136.91;5028741;28;20033;-70
2023/10/24 05:28:39;;;;;;;7.55;4.88;;;;;;;10.38;100.00;100139.63;5027227;28;20056;-70
2023/10/24 05:31:08;;;;;;;7.43;5.63;;;;;;;10.36;100.00;100138.91;5028722;28;20048;-70
2023/10/24 05:33:35;;;;;;;5.63;4.45;;;;;;;10.36;100.00;100134.31;5027000;28;20049;-69
2023/10/24 05:36:00;;;;;;;7.03;4.60;;;;;;;10.34;100.00;100125.41;5025761;28;20492;-69
2023/10/24 05:38:26;;;;;;;6.32;4.72;;;;;;;10.34;100.00;100111.81;5028088;28;20033;-70
2023/10/24 05:40:51;;;;;;;6.88;4.40;;;;;;;10.32;100.00;100113.81;5027986;28;20108;-73
2023/10/24 05:43:17;;;;;;;6.18;4.07;;;;;;;10.34;100.00;100114.53;5020671;28;20041;-72
2023/10/24 05:45:42;;;;;;;6.05;4.50;;;;;;;10.30;100.00;100099.47;5007145;28;20029;-71
2023/10/24 05:48:07;;;;;;;6.60;3.92;;;;;;;10.33;100.00;100118.25;5028657;28;20140;-69
2023/10/24 05:50:34;;;;;;;4.65;3.80;;;;;;;10.31;100.00;100122.97;5026518;28;20575;-68
2023/10/24 05:52:59;;;;;;;5.90;4.28;;;;;;;10.32;100.00;100115.69;5010510;28;20098;-70
2023/10/24 05:55:25;;;;;;;5.00;3.58;;;;;;;10.32;100.00;100129.28;5026972;28;20041;-70
2023/10/24 05:57:50;;;;;;;6.43;4.25;;;;;;;10.30;100.00;100123.94;5028095;28;20057;-70
2023/10/24 06:00:15;;;;;;;6.05;4.45;;;;;;;10.28;100.00;100120.50;5027813;28;20048;-70
2023/10/24 06:02:41;;;;;;;7.25;3.72;;;;;;;10.25;100.00;100123.47;5023264;28;20048;-69
2023/10/24 06:05:06;;;;;;;6.25;4.57;;;;;;;10.18;100.00;100124.94;5026870;28;20029;-73
2023/10/24 06:07:32;;;;;;;6.70;3.95;;;;;;;10.16;100.00;100130.47;5026776;28;20179;-70
2023/10/24 06:09:57;;;;;;;5.00;3.47;;;;;;;10.16;100.00;100140.50;5026515;28;20057;-71
2023/10/24 06:12:23;;;;;;;4.82;3.97;;;;;;;10.17;100.00;100143.09;5027425;28;20041;-71
2023/10/24 06:14:48;;;;;;;5.82;3.40;;;;;;;10.18;100.00;100143.97;5014229;28;20132;-70
2023/10/24 06:17:17;;;;;;;5.10;3.47;;;;;;;10.20;100.00;100129.25;5011968;28;20467;-70
2023/10/24 06:19:45;;;;;;;5.82;3.80;;;;;;;10.21;100.00;100127.38;5025980;28;20029;-72
2023/10/24 06:22:10;;;;;;;5.40;3.25;;;;;;;10.22;100.00;100113.69;5025941;28;20030;-71
2023/10/24 06:24:36;;;;;;;5.40;3.55;;;;;;;10.23;100.00;100118.13;5028027;28;20091;-70
2023/10/24 06:27:01;;;;;;;5.97;4.05;;;;;;;10.22;100.00;100115.53;5010289;28;20315;-71
2023/10/24 06:29:29;;;;;;;5.25;3.83;;;;;;;10.18;100.00;100114.06;5027873;28;20087;-70
2023/10/24 06:31:54;;;;;;;4.63;3.40;;;;;;;10.18;100.00;100117.66;5020104;28;20414;-71
2023/10/24 06:34:20;;;;;;;5.57;3.92;;;;;;;10.17;100.00;100124.09;5026961;28;20053;-71
2023/10/24 06:36:45;;;;;;;6.97;4.38;;;;;;;10.19;100.00;100132.97;5022824;28;20033;-71
2023/10/24 06:39:11;;;;;;;5.45;3.88;;;;;;;10.20;100.00;100137.41;5027954;28;20060;-70
2023/10/24 06:41:36;;;;;;;4.90;3.38;;;;;;;10.22;100.00;100150.88;5027748;28;20030;-71
2023/10/24 06:44:01;;;;;;;4.57;3.05;;;;;;;10.23;100.00;100155.31;5012096;28;20037;-69
2023/10/24 06:46:27;;;;;;;5.68;3.63;;;;;;;10.25;100.00;100163.38;5005820;28;20041;-69
2023/10/24 06:48:53;;;;;;;4.32;3.30;;;;;;;10.25;100.00;100158.81;5023933;28;20041;-70
2023/10/24 06:51:18;;;;;;;7.07;4.07;;;;;;;10.26;100.00;100159.66;5027109;28;20056;-70
2023/10/24 06:53:43;;;;;;;5.38;3.75;;;;;;;10.27;100.00;100159.56;5027327;28;20025;-70
2023/10/24 06:56:09;;;;;;;5.60;3.83;;;;;;;10.28;100.00;100144.97;5027770;28;20037;-69
2023/10/24 06:58:34;;;;;;;9.00;5.00;;;;;;;10.29;100.00;100143.09;5023203;28;20456;-69
2023/10/24 07:01:00;;;;;;;5.90;3.88;;;;;;;10.31;100.00;100136.56;5006162;28;20554;-69
2023/10/24 07:03:25;;;;;;;8.30;4.25;;;;;;;10.31;100.00;100139.28;5021409;28;20486;-71
2023/10/24 07:05:52;;;;;;;5.82;4.28;;;;;;;10.32;100.00;100141.00;5026611;28;20494;-69
2023/10/24 07:08:18;;;;;;;6.72;4.03;;;;;;;10.33;100.00;100131.00;5025541;28;20044;-70
2023/10/24 07:10:45;;;;;;;5.70;4.35;;;;;;;10.35;100.00;100131.72;5027341;28;20052;-70
2023/10/24 07:13:11;;;;;;;6.97;4.28;;;;;;;10.35;100.00;100129.00;5026401;28;20112;-72
2023/10/24 07:15:38;;;;;;;7.47;4.90;;;;;;;10.38;100.00;100126.91;5023562;28;20088;-70
2023/10/24 07:18:04;;;;;;;9.38;4.95;;;;;;;10.39;100.00;100133.19;5026563;28;20102;-70
2023/10/24 07:20:29;;;;;;;8.70;5.30;;;;;;;10.41;100.00;100137.53;5025326;28;20128;-71
2023/10/24 07:22:54;;;;;;;9.85;4.95;;;;;;;10.44;100.00;100130.94;5025953;28;20029;-70
2023/10/24 07:25:20;;;;;;;6.50;4.35;;;;;;;10.48;100.00;100132.44;5028161;28;20091;-70
2023/10/24 07:27:46;;;;;;;7.20;4.57;;;;;;;10.51;100.00;100131.31;5015095;28;20040;-70
2023/10/24 07:30:11;;;;;;;10.07;4.93;;;;;;;10.56;100.00;100139.94;5008158;28;20645;-72
2023/10/24 07:32:37;;;;;;;9.55;5.32;;;;;;;10.58;100.00;100141.53;5007845;28;20170;-72
2023/10/24 07:35:03;;;;;;;10.93;5.30;;;;;;;10.61;100.00;100146.72;5005341;28;20022;-71
2023/10/24 07:37:29;;;;;;;6.75;4.70;;;;;;;10.63;100.00;100144.75;5006824;28;20470;-70
2023/10/24 07:39:54;;;;;;;9.57;5.60;;;;;;;10.68;100.00;100142.53;5022886;28;20083;-70
2023/10/24 07:42:20;;;;;;;8.27;4.78;;;;;;;10.74;100.00;100141.13;5028102;28;20048;-69
2023/10/24 07:44:45;;;;;;;9.52;5.47;;;;;;;10.80;100.00;100142.47;5013677;28;20033;-69
2023/10/24 07:47:10;;;;;;;8.38;5.43;;;;;;;10.81;100.00;100136.88;5020549;28;20120;-71
2023/10/24 07:49:36;;;;;;;7.47;5.10;;;;;;;10.87;100.00;100138.25;5025636;28;20452;-69
2023/10/24 07:52:03;;;;;;;7.97;5.35;;;;;;;10.90;100.00;100124.34;5022909;28;20030;-70
2023/10/24 07:54:30;;;;;;;8.77;5.18;;;;;;;10.96;100.00;100130.16;5025934;28;20044;-70
2023/10/24 07:56:55;;;;;;;9.27;5.88;;;;;;;10.98;100.00;100124.56;5016445;28;20044;-70
2023/10/24 07:59:21;;;;;;;8.60;5.85;;;;;;;11.02;100.00;100130.63;5015924;28;20433;-71
2023/10/24 08:01:46;;;;;;;10.43;6.07;;;;;;;11.04;100.00;100120.44;5026917;28;20041;-73
2023/10/24 08:04:11;;;;;;;10.35;5.63;;;;;;;11.06;100.00;100122.06;5029426;28;20065;-70
2023/10/24 08:06:37;;;;;;;11.45;6.22;;;;;;;11.05;100.00;100123.06;5029913;28;20053;-70
2023/10/24 08:09:02;;;;;;;8.90;6.85;;;;;;;11.08;100.00;100128.22;5029578;28;20042;-70
2023/10/24 08:11:27;;;;;;;13.93;6.22;;;;;;;11.14;100.00;100124.97;5012411;28;20042;-71
2023/10/24 08:13:53;;;;;;;10.32;6.00;;;;;;;11.30;100.00;100124.50;5011830;28;20073;-70
2023/10/24 08:16:20;;;;;;;8.90;5.85;;;;;;;11.47;100.00;100129.34;5010080;28;20046;-71
2023/10/24 08:18:45;;;;;;;11.45;6.00;;;;;;;11.70;100.00;100131.88;5018117;28;20065;-70
2023/10/24 08:21:12;;;;;;;10.68;6.13;;;;;;;11.88;100.00;100130.28;5028280;28;20084;-71
2023/10/24 08:23:38;;;;;;;13.95;5.95;;;;;;;12.04;100.00;100135.25;5030520;28;20041;-70
2023/10/24 08:26:03;;;;;;;11.73;5.53;;;;;;;12.14;100.00;100141.59;5024893;28;20044;-69
2023/10/24 08:28:29;;;;;;;9.57;6.60;;;;;;;12.27;100.00;100138.63;5010597;28;20025;-71
2023/10/24 08:30:54;;;;;;;8.60;5.63;;;;;;;12.31;100.00;100137.34;5010547;28;20073;-70
2023/10/24 08:33:20;;;;;;;5.82;4.95;;;;;;;12.34;100.00;100145.22;5010683;28;20099;-71
2023/10/24 08:35:46;;;;;;;8.55;5.72;;;;;;;12.34;100.00;100147.09;5009281;28;20041;-71
2023/10/24 08:38:12;;;;;;;11.23;4.82;;;;;;;12.31;100.00;100153.69;5020143;28;20041;-70
2023/10/24 08:40:37;;;;;;;8.20;5.53;;;;;;;12.28;100.00;100162.16;5019105;28;20025;-71
2023/10/24 08:43:03;;;;;;;7.18;5.03;;;;;;;12.30;100.00;100170.19;5029875;28;20088;-73
2023/10/24 08:45:30;;;;;;;7.75;4.65;;;;;;;12.31;100.00;100161.88;5029736;28;20508;-70
2023/10/24 08:47:57;;;;;;;6.53;4.60;;;;;;;12.33;100.00;100169.91;5030123;28;20472;-72
2023/10/24 08:50:22;;;;;;;6.05;4.20;;;;;;;12.38;100.00;100163.03;5027077;28;20029;-71
2023/10/24 08:52:48;;;;;;;7.35;5.10;;;;;;;12.42;100.00;100158.16;5013826;28;20060;-70
2023/10/24 08:55:14;;;;;;;7.75;4.63;;;;;;;12.40;100.00;100158.31;5010100;28;20038;-71
2023/10/24 08:57:41;;;;;;;8.15;4.53;;;;;;;12.35;100.00;100151.53;5023394;28;20033;-71
2023/10/24 09:00:10;;;;;;;6.97;4.82;;;;;;;12.34;100.00;100147.09;4996943;28;20347;-69
2023/10/24 09:02:36;;;;;;;6.78;4.10;;;;;;;12.33;100.00;100165.31;5009897;28;20045;-70
2023/10/24 09:05:03;;;;;;;5.40;4.28;;;;;;;12.33;100.00;100164.47;5009531;28;20459;-70
2023/10/24 09:07:29;;;;;;;9.50;4.22;;;;;;;12.30;100.00;100151.09;5009281;28;20060;-71
2023/10/24 09:09:54;;;;;;;10.80;4.22;;;;;;;12.25;100.00;100149.66;5021833;28;20037;-70
2023/10/24 09:12:21;;;;;;;6.47;4.78;;;;;;;12.22;100.00;100140.91;5011359;28;20103;-70
2023/10/24 09:14:47;;;;;;;5.25;4.22;;;;;;;12.23;100.00;100146.22;5028116;28;20041;-71
2023/10/24 09:17:17;;;;;;;8.25;4.82;;;;;;;12.19;100.00;100152.94;5029400;28;20041;-70
2023/10/24 09:19:43;;;;;;;10.73;5.63;;;;;;;12.21;100.00;100137.28;5025155;28;20104;-70
2023/10/24 09:22:10;;;;;;;8.52;5.25;;;;;;;12.24;100.00;100127.97;5008872;28;20125;-70
2023/10/24 09:24:35;;;;;;;7.63;5.63;;;;;;;12.29;100.00;100130.28;5025450;28;20026;-71
2023/10/24 09:27:02;;;;;;;9.73;6.43;;;;;;;12.35;100.00;100135.16;5029570;28;20416;-70
2023/10/24 09:29:27;;;;;;;8.48;6.05;;;;;;;12.37;100.00;100134.03;5029011;28;20036;-71
2023/10/24 09:31:58;;;;;;;11.70;6.72;;;;;;;12.42;100.00;100122.72;5028193;28;20496;-71
2023/10/24 09:34:23;;;;;;;10.98;7.18;;;;;;;12.43;100.00;100118.97;5028518;28;20033;-70
2023/10/24 09:36:49;;;;;;;11.23;6.57;;;;;;;12.58;100.00;100116.69;5029044;28;20042;-71
2023/10/24 09:39:15;;;;;;;13.15;6.72;;;;;;;12.72;100.00;100125.31;5029199;28;20386;-69
2023/10/24 09:41:41;;;;;;;8.50;5.85;;;;;;;12.85;100.00;100133.22;5029249;28;20049;-70
2023/10/24 09:44:07;;;;;;;12.27;6.10;;;;;;;12.98;100.00;100127.50;5028812;28;20588;-70
2023/10/24 09:46:34;;;;;;;8.25;6.38;;;;;;;13.07;100.00;100137.53;5027547;28;20442;-72
2023/10/24 09:49:01;;;;;;;9.30;5.55;;;;;;;13.20;100.00;100134.53;5027086;28;20112;-70
2023/10/24 09:51:26;;;;;;;8.85;5.57;;;;;;;13.25;100.00;100119.44;5023620;28;20092;-70
2023/10/24 09:53:52;;;;;;;8.82;5.57;;;;;;;13.30;100.00;100115.41;5013684;28;20052;-71
2023/10/24 09:56:20;;;;;;;10.00;5.90;;;;;;;13.28;100.00;100115.53;5028289;28;20436;-70
2023/10/24 09:58:45;;;;;;;5.28;4.55;;;;;;;13.20;98.81;100118.13;5010502;28;20033;-71
2023/10/24 10:01:12;;;;;;;6.93;4.50;;;;;;;13.13;99.65;100119.72;5027748;28;20033;-71
2023/10/24 10:03:38;;;;;;;6.07;4.35;;;;;;;13.12;100.00;100113.38;5008617;28;20042;-70
2023/10/24 10:06:08;;;;;;;6.90;4.60;;;;;;;13.14;100.00;100122.28;5007852;28;20409;-70
2023/10/24 10:08:36;;;;;;;7.80;4.22;;;;;;;13.11;100.00;100113.53;5009175;28;20408;-70
2023/10/24 10:11:04;;;;;;;6.43;5.07;;;;;;;13.12;100.00;100120.72;5008854;28;20042;-70
2023/10/24 10:13:32;;;;;;;6.10;4.63;;;;;;;13.12;100.00;100126.19;5009105;28;20034;-70
2023/10/24 10:16:16;;;;;;;7.60;4.50;;;;;;;13.09;99.98;100123.72;5024728;28;20159;-71
2023/10/24 10:19:28;;;;;;;5.15;4.35;;;;;;;13.09;100.00;100127.31;5021582;28;20076;-70
2023/10/24 10:22:35;;;;;;;8.60;5.20;;;;;;;13.09;100.00;100134.66;5007722;28;20037;-72
2023/10/24 10:25:15;;;;;;;5.25;4.00;;;;;;;13.00;100.00;100131.78;5024897;28;20033;-70
2023/10/24 10:28:05;;;;;;;6.93;4.30;;;;;;;13.00;100.00;100137.25;5028274;28;20579;-70
2023/10/24 10:30:46;;;;;;;6.47;4.60;;;;;;;12.95;100.00;100130.50;5010627;28;20124;-70
2023/10/24 10:33:23;;;;;;;8.68;5.05;;;;;;;12.91;100.00;100129.06;5020174;28;20055;-70
2023/10/24 10:36:01;;;;;;;9.60;5.25;;;;;;;12.85;100.00;100140.56;5022871;28;20478;-71
2023/10/24 10:38:45;;;;;;;8.48;4.43;;;;;;;12.78;100.00;100123.91;5008417;28;20367;-71
2023/10/24 10:41:21;;;;;;;9.25;4.93;;;;;;;12.76;100.00;100126.75;5008449;28;20068;-70
2023/10/24 10:43:50;;;;;;;6.68;4.78;;;;;;;12.70;100.00;100115.56;4998389;28;20040;-71
2023/10/24 10:46:16;;;;;;;6.70;4.97;;;;;;;12.65;100.00;100124.19;5006863;28;20117;-71
2023/10/24 10:48:42;;;;;;;6.43;5.07;;;;;;;12.61;100.00;100121.88;5008050;28;20136;-71
2023/10/24 10:51:11;;;;;;;9.95;5.70;;;;;;;12.51;100.00;100114.53;5021936;28;20139;-71
2023/10/24 10:54:12;;;;;;;8.10;4.72;;;;;;;12.50;100.00;100120.16;5008270;28;20094;-70
2023/10/24 10:56:39;;;;;;;7.53;4.72;;;;;;;12.45;100.00;100112.38;5006527;28;20053;-70
2023/10/24 10:59:04;;;;;;;8.57;4.88;;;;;;;12.46;100.00;100118.69;4993146;28;20367;-69
2023/10/24 11:01:38;;;;;;;8.82;5.57;;;;;;;12.45;100.00;100114.22;5006866;28;20057;-70
2023/10/24 11:04:12;;;;;;;8.68;5.70;;;;;;;12.42;100.00;100109.06;5008185;28;20481;-70
2023/10/24 11:06:41;;;;;;;10.40;5.70;;;;;;;12.39;100.00;100112.94;5021845;28;20059;-70
2023/10/24 11:09:08;;;;;;;10.13;5.85;;;;;;;12.33;100.00;100112.63;5026397;28;20404;-71
2023/10/24 11:11:34;;;;;;;5.93;4.90;;;;;;;12.23;100.00;100113.47;5027723;28;20041;-70
2023/10/24 11:14:17;;;;;;;6.55;5.20;;;;;;;12.18;100.00;100114.91;5022288;28;20458;-70